M I D A S
Marine Information and Data Acquisition System
Tripno 848 of the Zeeleeuw from 2005-02-18 08:11:09 to 2005-02-18 12:28:13
Back to CruiseResearch ActivitiesStationsMapUnderway DataData graphs

EquipmentUnitsComment
TimeDGPSUTC
LatitudeDGPSDM.mWGS84
LongitudeDGPSDM.mWGS84
HeadingGyrodeg 
SOGDGPSknotsSpeed over ground
COGDGPSdegCourse over ground
DepthEcho soundermeters200 kHz
Missing or incorrect values are displayed as -999
Navigation data collected by the RV Zeeleeuw from 2005-02-18 08:12:17 to 2005-02-18 12:34:27
                                                                                    Next 1000 lines
Time Latitude Longitude Heading SOG COG Depth
2005-02-18 08:12:26 51°13.595 2°56.101 116.7 0.2 293 9.3
2005-02-18 08:12:32 51°13.595 2°56.1 117.1 0.2 293 9.4
2005-02-18 08:12:36 51°13.596 2°56.099 117.4 0.6 302 9.3
2005-02-18 08:12:41 51°13.596 2°56.097 117.9 0.7 302 9.3
2005-02-18 08:12:47 51°13.597 2°56.096 118.4 0.7 303 9.2
2005-02-18 08:12:51 51°13.598 2°56.094 118.9 0.9 305 9.2
2005-02-18 08:12:57 51°13.599 2°56.093 119.2 0.9 304 9.3
2005-02-18 08:13:01 51°13.599 2°56.091 119.2 0.9 304 9.3
2005-02-18 08:13:06 51°13.6 2°56.09 119.3 0.8 303 9.4
2005-02-18 08:13:12 51°13.601 2°56.088 119.4 0.8 305 9.3
2005-02-18 08:13:17 51°13.601 2°56.087 119.5 0.8 305 9.4
2005-02-18 08:13:22 51°13.602 2°56.085 119.3 0.8 306 9.4
2005-02-18 08:13:26 51°13.602 2°56.083 119 0.8 306 9.4
2005-02-18 08:13:32 51°13.603 2°56.081 119 0.8 306 9.4
2005-02-18 08:13:36 51°13.604 2°56.078 119.1 1.5 298 9.6
2005-02-18 08:13:42 51°13.606 2°56.073 119.2 1.7 298 9.6
2005-02-18 08:13:47 51°13.607 2°56.069 119.2 1.7 298 9.6
2005-02-18 08:13:52 51°13.609 2°56.064 118.7 1.7 298 7.5
2005-02-18 08:13:57 51°13.611 2°56.058 118.2 2.6 296 -999
2005-02-18 08:14:02 51°13.612 2°56.052 117.7 2.6 296 -999
2005-02-18 08:14:07 51°13.614 2°56.045 117.5 3 294 -999
2005-02-18 08:14:12 51°13.616 2°56.039 118.1 3 294 -999
2005-02-18 08:14:17 51°13.618 2°56.032 118.6 3 294 -999
2005-02-18 08:14:22 51°13.62 2°56.025 119.5 3 294 -999
2005-02-18 08:14:27 51°13.623 2°56.017 120.1 3 294 -999
2005-02-18 08:14:32 51°13.625 2°56.009 121.2 3.7 297 -999
2005-02-18 08:14:36 51°13.627 2°56.003 122 3.9 298 -999
2005-02-18 08:14:42 51°13.63 2°55.995 123.1 3.9 298 -999
2005-02-18 08:14:47 51°13.633 2°55.986 123.8 4.1 299 -999
2005-02-18 08:14:52 51°13.636 2°55.979 124.7 4.3 301 -999
2005-02-18 08:14:57 51°13.64 2°55.969 125.2 4.4 301 -999
2005-02-18 08:15:02 51°13.643 2°55.962 126 4.5 303 -999
2005-02-18 08:15:07 51°13.647 2°55.952 126.8 4.6 303 -999
2005-02-18 08:15:12 51°13.651 2°55.944 127.5 4.6 303 -999
2005-02-18 08:15:17 51°13.655 2°55.935 128.2 4.6 303 -999
2005-02-18 08:15:22 51°13.658 2°55.927 128.4 4.6 303 -999
2005-02-18 08:15:27 51°13.662 2°55.918 128.5 4.8 305 -999
2005-02-18 08:15:32 51°13.666 2°55.909 128.4 4.8 305 -999
2005-02-18 08:15:36 51°13.669 2°55.902 128.3 4.9 305 -999
2005-02-18 08:15:42 51°13.674 2°55.892 127.9 4.9 305 -999
2005-02-18 08:15:47 51°13.678 2°55.882 127.4 4.9 305 -999
2005-02-18 08:15:52 51°13.682 2°55.873 126.7 4.9 305 -999
2005-02-18 08:15:57 51°13.686 2°55.864 126.1 4.9 304 -999
2005-02-18 08:16:02 51°13.689 2°55.856 125 4.9 304 -999
2005-02-18 08:16:07 51°13.693 2°55.846 123.7 5 302 -999
2005-02-18 08:16:12 51°13.696 2°55.837 122 5 301 -999
2005-02-18 08:16:17 51°13.7 2°55.826 120.1 5 301 -999
2005-02-18 08:16:22 51°13.703 2°55.818 118.2 4.9 298 -999
2005-02-18 08:16:27 51°13.706 2°55.808 116.1 4.7 296 -999
2005-02-18 08:16:32 51°13.708 2°55.799 113.7 4.6 295 -999
2005-02-18 08:16:36 51°13.71 2°55.791 112.1 4.5 293 -999
2005-02-18 08:16:42 51°13.712 2°55.782 109.5 4.5 293 -999
2005-02-18 08:16:47 51°13.714 2°55.772 108.1 4.5 293 -999
2005-02-18 08:16:52 51°13.716 2°55.765 106.4 4.1 290 -999
2005-02-18 08:16:56 51°13.717 2°55.758 104.9 3.8 289 -999
2005-02-18 08:17:02 51°13.719 2°55.751 103.4 3.6 288 15.4
2005-02-18 08:17:06 51°13.72 2°55.746 101.7 2.9 287 15.3
2005-02-18 08:17:11 51°13.721 2°55.741 99.6 2.9 287 14.6
2005-02-18 08:17:16 51°13.722 2°55.737 96.6 1.8 289 13.9
2005-02-18 08:17:21 51°13.722 2°55.735 93.6 1.8 289 13.5
2005-02-18 08:17:27 51°13.723 2°55.735 89.6 1.8 289 13.4
2005-02-18 08:17:31 51°13.724 2°55.735 84 0.6 359 13.2
2005-02-18 08:17:37 51°13.725 2°55.737 77.5 0.6 359 13.1
2005-02-18 08:17:41 51°13.726 2°55.738 70.4 0.6 359 13
2005-02-18 08:17:46 51°13.728 2°55.74 63 1.3 33 13.2
2005-02-18 08:17:51 51°13.729 2°55.741 57 1.3 33 13.2
2005-02-18 08:17:56 51°13.73 2°55.741 53 1.3 33 13.2
2005-02-18 08:18:02 51°13.73 2°55.74 49.6 1.3 33 13.2
2005-02-18 08:18:07 51°13.73 2°55.739 46.4 0.4 284 13.3
2005-02-18 08:18:12 51°13.73 2°55.738 43.5 0.4 284 13.4
2005-02-18 08:18:17 51°13.729 2°55.737 41.6 0.4 284 13.4
2005-02-18 08:18:22 51°13.728 2°55.734 39.1 1.1 228 13
2005-02-18 08:18:26 51°13.726 2°55.733 37.4 1.1 228 13.1
2005-02-18 08:18:32 51°13.725 2°55.73 35.8 1.1 228 13.1
2005-02-18 08:18:37 51°13.723 2°55.728 34.3 1.5 219 -999
2005-02-18 08:18:42 51°13.722 2°55.726 32.9 1.4 218 -999
2005-02-18 08:18:47 51°13.721 2°55.725 31.8 1.2 224 -999
2005-02-18 08:18:51 51°13.721 2°55.725 31 1.1 225 -999
2005-02-18 08:18:57 51°13.721 2°55.723 28.8 0.2 309 -999
2005-02-18 08:19:02 51°13.722 2°55.723 24.6 0.2 309 -999
2005-02-18 08:19:06 51°13.721 2°55.723 19 0.2 309 13.3
2005-02-18 08:19:11 51°13.721 2°55.723 12.6 0.2 309 -999
2005-02-18 08:19:17 51°13.729 2°55.722 5.7 -999 179 -999
2005-02-18 08:19:22 51°13.732 2°55.72 358.4 -999 179 -999
2005-02-18 08:19:27 51°13.735 2°55.718 352.5 2.6 345 -999
2005-02-18 08:19:32 51°13.739 2°55.716 345.6 2.6 345 5.1
2005-02-18 08:19:37 51°13.744 2°55.712 341.3 2.6 345 12.1
2005-02-18 08:19:41 51°13.748 2°55.708 337 3.6 331 12.1
2005-02-18 08:19:47 51°13.754 2°55.702 334.5 4.2 329 12.4
2005-02-18 08:19:52 51°13.757 2°55.699 332.9 4.4 328 12.6
2005-02-18 08:19:56 51°13.764 2°55.692 332.2 3.8 329 12.3
2005-02-18 08:20:02 51°13.771 2°55.685 332.1 4 328 12.3
2005-02-18 08:20:07 51°13.778 2°55.678 332.1 5.3 328 12.3
2005-02-18 08:20:12 51°13.785 2°55.672 332.3 5.3 328 12.3
2005-02-18 08:20:16 51°13.791 2°55.665 332.7 6 329 12.1
2005-02-18 08:20:22 51°13.8 2°55.658 333.8 6 329 12.3
2005-02-18 08:20:26 51°13.807 2°55.652 335 6.3 331 12.5
2005-02-18 08:20:32 51°13.816 2°55.645 336 6.3 331 12.6
2005-02-18 08:20:36 51°13.822 2°55.64 337 6.6 333 12.7
2005-02-18 08:20:42 51°13.832 2°55.631 337.5 6.7 334 12.7
2005-02-18 08:20:46 51°13.839 2°55.626 337.6 6.9 334 12.5
2005-02-18 08:20:52 51°13.85 2°55.618 338.2 7 334 12.7
2005-02-18 08:20:56 51°13.858 2°55.612 338.7 7.1 335 12.5
2005-02-18 08:21:02 51°13.868 2°55.605 338.9 7.2 335 12.4
2005-02-18 08:21:06 51°13.875 2°55.599 338.9 7.3 335 12.5
2005-02-18 08:21:12 51°13.887 2°55.591 339.1 7.3 335 12.2
2005-02-18 08:21:16 51°13.895 2°55.585 339.1 7.3 335 12.4
2005-02-18 08:21:21 51°13.904 2°55.578 339.2 7.4 336 12.5
2005-02-18 08:21:26 51°13.913 2°55.572 339.3 7.5 335 12.3
2005-02-18 08:21:31 51°13.923 2°55.564 339.3 7.5 335 12.3
2005-02-18 08:21:36 51°13.933 2°55.557 339.2 7.6 335 12.1
2005-02-18 08:21:42 51°13.943 2°55.548 338.8 7.6 335 12.1
2005-02-18 08:21:46 51°13.95 2°55.543 338.6 7.6 335 12.3
2005-02-18 08:21:52 51°13.962 2°55.534 338.7 7.6 335 12.2
2005-02-18 08:21:56 51°13.971 2°55.528 338.8 7.6 334 12.4
2005-02-18 08:22:01 51°13.98 2°55.521 338.8 7.7 336 12.3
2005-02-18 08:22:07 51°13.991 2°55.512 338.9 7.7 335 12.3
2005-02-18 08:22:11 51°14 2°55.506 338.6 7.7 335 12.3
2005-02-18 08:22:17 51°14.01 2°55.498 338.9 7.7 335 12.1
2005-02-18 08:22:21 51°14.019 2°55.492 339 7.7 335 12.1
2005-02-18 08:22:26 51°14.028 2°55.485 339 7.7 335 11.9
2005-02-18 08:22:31 51°14.038 2°55.477 339.1 7.7 335 11.9
2005-02-18 08:22:36 51°14.047 2°55.47 338.5 7.7 335 11.7
2005-02-18 08:22:41 51°14.057 2°55.461 337.6 7.7 335 11.7
2005-02-18 08:22:47 51°14.068 2°55.453 337.3 7.8 333 11.7
2005-02-18 08:22:52 51°14.078 2°55.446 337.5 7.8 333 11.6
2005-02-18 08:22:57 51°14.088 2°55.438 338 7.8 333 11.5
2005-02-18 08:23:01 51°14.097 2°55.431 338.2 7.8 333 11.5
2005-02-18 08:23:06 51°14.105 2°55.425 338 7.8 333 11.5
2005-02-18 08:23:12 51°14.117 2°55.416 337.5 7.8 333 11.5
2005-02-18 08:23:16 51°14.126 2°55.409 337.5 7.9 334 11.6
2005-02-18 08:23:21 51°14.136 2°55.401 337.5 7.9 334 11.8
2005-02-18 08:23:26 51°14.144 2°55.393 337.1 7.9 332 11.9
2005-02-18 08:23:32 51°14.156 2°55.383 336.3 7.9 332 12.1
2005-02-18 08:23:37 51°14.166 2°55.374 335.3 7.9 332 11.9
2005-02-18 08:23:42 51°14.176 2°55.364 334.3 8.4 330 12
2005-02-18 08:23:46 51°14.184 2°55.355 332.5 8.7 327 12.1
2005-02-18 08:23:52 51°14.197 2°55.341 330.9 8.8 326 12.1
2005-02-18 08:23:56 51°14.205 2°55.332 329.9 9 324 12.1
2005-02-18 08:24:01 51°14.216 2°55.318 328 9 324 12.1
2005-02-18 08:24:06 51°14.226 2°55.305 326.1 9 324 12.1
2005-02-18 08:24:12 51°14.236 2°55.29 324 9 324 12.1
2005-02-18 08:24:16 51°14.244 2°55.276 322 9.4 318 12.1
2005-02-18 08:24:22 51°14.255 2°55.26 320.1 9.5 316 12.1
2005-02-18 08:24:25 51°14.261 2°55.249 319.7 9.6 315 12.1
2005-02-18 08:24:32 51°14.273 2°55.229 318.9 9.6 315 12.1
2005-02-18 08:24:37 51°14.282 2°55.213 317 9.6 315 12.1
2005-02-18 08:24:41 51°14.29 2°55.198 315.7 9.7 311 12.1
2005-02-18 08:24:47 51°14.3 2°55.18 315.4 9.8 311 12.1
2005-02-18 08:24:52 51°14.308 2°55.164 314.6 9.8 310 12.1
2005-02-18 08:24:56 51°14.316 2°55.148 314.1 9.8 310 12.2
2005-02-18 08:25:02 51°14.326 2°55.13 313.8 9.8 310 12.2
2005-02-18 08:25:05 51°14.332 2°55.118 313.7 9.9 310 12.2
2005-02-18 08:25:12 51°14.343 2°55.096 313.7 9.9 310 12.2
2005-02-18 08:25:16 51°14.351 2°55.081 313.7 9.9 310 12.2
2005-02-18 08:25:21 51°14.36 2°55.064 313.8 10 310 12.4
2005-02-18 08:25:27 51°14.37 2°55.046 314.5 9.9 311 12.5
2005-02-18 08:25:32 51°14.379 2°55.03 315 9.9 311 12.7
2005-02-18 08:25:37 51°14.388 2°55.013 315.2 9.9 311 12.6
2005-02-18 08:25:42 51°14.397 2°54.996 315.1 9.9 311 12.7
2005-02-18 08:25:47 51°14.406 2°54.98 313.9 9.9 311 12.7
2005-02-18 08:25:52 51°14.415 2°54.963 311.9 9.9 311 12.7
2005-02-18 08:25:57 51°14.424 2°54.946 311.3 9.9 311 12.7
2005-02-18 08:26:02 51°14.432 2°54.929 310.9 9.8 309 12.7
2005-02-18 08:26:06 51°14.439 2°54.915 309.8 9.9 309 12.6
2005-02-18 08:26:12 51°14.448 2°54.894 307.4 9.8 308 12.7
2005-02-18 08:26:17 51°14.456 2°54.876 305 9.7 305 12.6
2005-02-18 08:26:21 51°14.461 2°54.859 302 9.7 305 12.6
2005-02-18 08:26:25 51°14.466 2°54.844 298.9 9.4 297 12.6
2005-02-18 08:26:32 51°14.473 2°54.82 295.7 9.4 297 12.6
2005-02-18 08:26:36 51°14.477 2°54.803 293.2 9.4 297 12.6
2005-02-18 08:26:41 51°14.482 2°54.784 291.5 9.3 291 12.6
2005-02-18 08:26:46 51°14.485 2°54.766 289.7 9.3 289 12.6
2005-02-18 08:26:52 51°14.49 2°54.743 288 9.3 289 12.6
2005-02-18 08:26:57 51°14.493 2°54.723 286.8 9.3 289 12.6
2005-02-18 08:27:01 51°14.495 2°54.705 284.6 9.3 289 12.6
2005-02-18 08:27:07 51°14.497 2°54.683 282.9 9.2 281 12.5
2005-02-18 08:27:12 51°14.499 2°54.663 281 9.2 281 12.5
2005-02-18 08:27:16 51°14.501 2°54.645 279.1 9.1 278 12.6
2005-02-18 08:27:22 51°14.502 2°54.623 277.3 9.1 278 12.6
2005-02-18 08:27:26 51°14.503 2°54.605 275.7 9.1 276 12.6
2005-02-18 08:27:32 51°14.504 2°54.583 274.3 9.1 276 12.5
2005-02-18 08:27:37 51°14.505 2°54.564 273.6 9 275 12.5
2005-02-18 08:27:42 51°14.506 2°54.544 273.4 9 275 12.5
2005-02-18 08:27:47 51°14.507 2°54.524 273.3 9 274 12.6
2005-02-18 08:27:52 51°14.508 2°54.504 273.3 9 274 12.6
2005-02-18 08:27:57 51°14.509 2°54.484 273.6 9 275 12.6
2005-02-18 08:28:01 51°14.51 2°54.466 273.6 9 274 12.5
2005-02-18 08:28:05 51°14.51 2°54.451 272.6 8.9 271 12.6
2005-02-18 08:28:12 51°14.509 2°54.425 269.5 8.9 269 12.5
2005-02-18 08:28:17 51°14.507 2°54.407 267 8.9 269 12.6
2005-02-18 08:28:22 51°14.505 2°54.388 263.4 8.9 269 12.6
2005-02-18 08:28:27 51°14.502 2°54.37 259.7 8.6 258 12.5
2005-02-18 08:28:32 51°14.499 2°54.351 256.9 8.5 256 12.5
2005-02-18 08:28:37 51°14.495 2°54.333 255.2 8.5 256 12.5
2005-02-18 08:28:42 51°14.492 2°54.315 254 8.5 256 12.5
2005-02-18 08:28:46 51°14.489 2°54.301 253 8.5 251 12.5
2005-02-18 08:28:52 51°14.483 2°54.281 251.5 8.5 251 12.5
2005-02-18 08:28:57 51°14.478 2°54.264 249.6 8.5 246 12.5
2005-02-18 08:29:02 51°14.473 2°54.247 247.4 8.5 246 12.5
2005-02-18 08:29:06 51°14.468 2°54.232 245.2 8.5 242 12.2
2005-02-18 08:29:12 51°14.461 2°54.214 242.9 8.5 242 11.9
2005-02-18 08:29:17 51°14.455 2°54.198 241.6 8.5 240 11.8
2005-02-18 08:29:22 51°14.45 2°54.182 241.2 8.5 239 11.7
2005-02-18 08:29:26 51°14.444 2°54.167 241.1 8.5 239 11.7
2005-02-18 08:29:32 51°14.437 2°54.149 241.1 8.5 239 11.8
2005-02-18 08:29:36 51°14.432 2°54.135 241.1 8.5 239 11.7
2005-02-18 08:29:42 51°14.425 2°54.117 241.5 8.5 239 11.7
2005-02-18 08:29:47 51°14.419 2°54.101 241 8.5 237 11.7
2005-02-18 08:29:52 51°14.412 2°54.086 239.5 8.5 237 11.7
2005-02-18 08:29:57 51°14.405 2°54.071 237.7 8.5 237 11.7
2005-02-18 08:30:02 51°14.398 2°54.056 235.9 8.5 237 11.7
2005-02-18 08:30:07 51°14.39 2°54.042 234.5 8.5 231 11.7
2005-02-18 08:30:12 51°14.382 2°54.028 232.9 8.5 231 11.7
2005-02-18 08:30:17 51°14.375 2°54.014 232.2 8.5 231 11.7
2005-02-18 08:30:21 51°14.368 2°54.001 232.2 8.5 230 11.6
2005-02-18 08:30:26 51°14.361 2°53.986 232.8 8.5 230 11.6
2005-02-18 08:30:32 51°14.353 2°53.97 234.3 8.5 230 11.6
2005-02-18 08:30:37 51°14.346 2°53.955 235.2 8.5 233 11.6
2005-02-18 08:30:42 51°14.34 2°53.942 236.4 8.5 233 11.6
2005-02-18 08:30:46 51°14.336 2°53.93 237.3 7.3 235 11.6
2005-02-18 08:30:52 51°14.33 2°53.917 237.8 7.3 235 11.7
2005-02-18 08:30:57 51°14.325 2°53.905 238.3 7.3 235 11.7
2005-02-18 08:31:01 51°14.322 2°53.896 238.6 7.3 235 11.7
2005-02-18 08:31:06 51°14.318 2°53.887 238.5 5.6 236 11.7
2005-02-18 08:31:12 51°14.313 2°53.876 237.8 5.4 236 11.7
2005-02-18 08:31:16 51°14.309 2°53.869 236.6 5 233 11.7
2005-02-18 08:31:21 51°14.305 2°53.86 234.6 4.7 232 11.7
2005-02-18 08:31:27 51°14.301 2°53.853 233 4.4 229 11.6
2005-02-18 08:31:32 51°14.297 2°53.846 230.9 4.4 229 11.7
2005-02-18 08:31:36 51°14.294 2°53.841 229.3 3.9 226 11.6
2005-02-18 08:31:42 51°14.289 2°53.835 227.2 3.7 225 11.7
2005-02-18 08:31:46 51°14.287 2°53.831 226 3.4 221 11.6
2005-02-18 08:31:51 51°14.283 2°53.827 224.7 3.3 221 11.7
2005-02-18 08:31:57 51°14.279 2°53.823 223.3 3.1 217 11.6
2005-02-18 08:32:01 51°14.277 2°53.819 221.9 3.1 217 11.7
2005-02-18 08:32:07 51°14.273 2°53.816 220.6 3.1 217 11.6
2005-02-18 08:32:12 51°14.27 2°53.813 219.3 2.6 213 11.6
2005-02-18 08:32:16 51°14.268 2°53.811 218.1 2.4 211 11.6
2005-02-18 08:32:22 51°14.265 2°53.808 217 2.3 210 11.6
2005-02-18 08:32:26 51°14.263 2°53.807 216.2 2.1 206 11.6
2005-02-18 08:32:32 51°14.26 2°53.805 215.1 2 205 11.6
2005-02-18 08:32:36 51°14.258 2°53.804 214.1 2 202 11.5
2005-02-18 08:32:42 51°14.255 2°53.802 213.3 1.9 202 11.5
2005-02-18 08:32:47 51°14.253 2°53.801 212.3 1.9 202 11.6
2005-02-18 08:32:52 51°14.25 2°53.8 211.5 1.9 202 11.5
2005-02-18 08:32:57 51°14.248 2°53.799 211 1.6 196 11.5
2005-02-18 08:33:02 51°14.246 2°53.799 210.2 1.6 196 11.5
2005-02-18 08:33:06 51°14.245 2°53.798 209.7 1.4 190 11.6
2005-02-18 08:33:11 51°14.243 2°53.797 209 1.4 190 11.6
2005-02-18 08:33:17 51°14.241 2°53.797 208.3 1.3 185 11.5
2005-02-18 08:33:21 51°14.239 2°53.797 207.8 1.3 185 11.5
2005-02-18 08:33:25 51°14.238 2°53.797 207.5 1.2 180 11.6
2005-02-18 08:33:32 51°14.236 2°53.797 207.3 1.2 181 11.6
2005-02-18 08:33:36 51°14.235 2°53.798 207.1 1.2 181 11.5
2005-02-18 08:33:42 51°14.233 2°53.798 207.1 1.1 177 11.5
2005-02-18 08:33:46 51°14.232 2°53.798 207.1 1 175 11.5
2005-02-18 08:33:52 51°14.231 2°53.798 207.2 0.9 173 11.5
2005-02-18 08:33:56 51°14.23 2°53.798 207.4 0.9 173 11.5
2005-02-18 08:34:02 51°14.229 2°53.798 207.5 0.9 173 11.5
2005-02-18 08:34:06 51°14.228 2°53.799 207.9 0.7 169 11.5
2005-02-18 08:34:12 51°14.227 2°53.799 208.2 0.7 169 11.5
2005-02-18 08:34:16 51°14.226 2°53.8 208.6 0.6 168 11.5
2005-02-18 08:34:21 51°14.226 2°53.8 209 0.6 164 11.5
2005-02-18 08:34:26 51°14.225 2°53.801 209.4 0.6 157 11.5
2005-02-18 08:34:32 51°14.224 2°53.801 209.7 0.6 157 11.5
2005-02-18 08:34:37 51°14.223 2°53.802 210 0.4 162 11.5
2005-02-18 08:34:41 51°14.223 2°53.802 210.6 0.4 151 11.5
2005-02-18 08:34:46 51°14.223 2°53.802 211 0.4 146 11.5
2005-02-18 08:34:52 51°14.222 2°53.803 211.5 0.3 141 11.4
2005-02-18 08:34:57 51°14.222 2°53.804 212.2 0.3 131 11.4
2005-02-18 08:35:01 51°14.222 2°53.804 212.7 0.3 129 11.4
2005-02-18 08:35:07 51°14.222 2°53.805 213.5 0.3 126 11.5
2005-02-18 08:35:12 51°14.222 2°53.805 214.1 0.3 103 11.4
2005-02-18 08:35:17 51°14.222 2°53.806 214.8 0.3 103 11.4
2005-02-18 08:35:21 51°14.222 2°53.807 215.6 0.2 83 11.4
2005-02-18 08:35:26 51°14.222 2°53.807 216.2 0.3 79 11.4
2005-02-18 08:35:32 51°14.222 2°53.808 216.9 0.3 74 11.4
2005-02-18 08:35:36 51°14.222 2°53.809 217.7 0.3 68 11.5
2005-02-18 08:35:41 51°14.222 2°53.809 218.5 0.4 68 11.4
2005-02-18 08:35:46 51°14.223 2°53.811 219.5 0.4 68 11.5
2005-02-18 08:35:52 51°14.223 2°53.811 220.3 0.4 68 11.4
2005-02-18 08:35:57 51°14.223 2°53.812 221.2 0.4 68 11.5
2005-02-18 08:36:01 51°14.223 2°53.812 222 0.4 68 11.4
2005-02-18 08:36:07 51°14.223 2°53.812 223.2 -999 208 11.4
2005-02-18 08:36:12 51°14.223 2°53.811 225.1 -999 208 11.4
2005-02-18 08:36:16 51°14.223 2°53.81 227.6 0.4 241 11.4
2005-02-18 08:36:21 51°14.222 2°53.808 229.9 0.5 241 11.4
2005-02-18 08:36:27 51°14.221 2°53.805 233.5 0.8 244 11.4
2005-02-18 08:36:31 51°14.219 2°53.801 235.6 1.7 237 11.4
2005-02-18 08:36:36 51°14.217 2°53.795 236.4 2.7 238 11.4
2005-02-18 08:36:41 51°14.214 2°53.788 236.3 3.3 236 11.4
2005-02-18 08:36:47 51°14.209 2°53.778 236.2 4.2 237 11.3
2005-02-18 08:36:52 51°14.205 2°53.768 236.6 5.1 236 11.4
2005-02-18 08:36:56 51°14.201 2°53.757 237.8 5.7 238 11.3
2005-02-18 08:37:01 51°14.196 2°53.744 239 6.2 239 11.4
2005-02-18 08:37:06 51°14.192 2°53.732 240 7.2 240 11.4
2005-02-18 08:37:12 51°14.185 2°53.713 241.1 7.6 240 11.4
2005-02-18 08:37:16 51°14.18 2°53.699 241.6 7.8 240 11.4
2005-02-18 08:37:21 51°14.175 2°53.682 242.4 8.3 241 11.4
2005-02-18 08:37:27 51°14.168 2°53.663 242.9 8.6 242 11.3
2005-02-18 08:37:32 51°14.162 2°53.645 243.4 9 242 11.4
2005-02-18 08:37:36 51°14.157 2°53.629 243.5 9.2 242 11.4
2005-02-18 08:37:41 51°14.15 2°53.611 242.8 9.3 240 11.4
2005-02-18 08:37:47 51°14.142 2°53.591 241.6 9.5 240 11.4
2005-02-18 08:37:52 51°14.135 2°53.572 240.9 9.8 239 11.4
2005-02-18 08:37:56 51°14.128 2°53.555 240.2 10 238 11.4
2005-02-18 08:38:02 51°14.12 2°53.534 239.9 10 238 11.4
2005-02-18 08:38:06 51°14.113 2°53.517 239.5 10.3 237 11.4
2005-02-18 08:38:12 51°14.104 2°53.495 239.3 10.5 237 11.4
2005-02-18 08:38:16 51°14.097 2°53.479 239.3 10.7 237 11.4
2005-02-18 08:38:21 51°14.089 2°53.457 239.3 10.8 237 11.4
2005-02-18 08:38:26 51°14.081 2°53.438 239.5 11 238 11.4
2005-02-18 08:38:32 51°14.071 2°53.413 239.8 11 238 11.4
2005-02-18 08:38:36 51°14.065 2°53.397 239.9 11.1 238 11.4
2005-02-18 08:38:41 51°14.056 2°53.374 239.7 11.2 237 11.4
2005-02-18 08:38:47 51°14.046 2°53.351 239.5 11.3 237 11.5
2005-02-18 08:38:52 51°14.037 2°53.329 239.2 11.3 237 11.5
2005-02-18 08:38:56 51°14.03 2°53.312 239.2 11.6 238 11.5
2005-02-18 08:39:01 51°14.021 2°53.287 239.4 11.7 237 11.5
2005-02-18 08:39:07 51°14.011 2°53.263 239.6 11.7 237 11.5
2005-02-18 08:39:12 51°14.002 2°53.241 239.7 11.7 237 11.5
2005-02-18 08:39:17 51°13.993 2°53.218 239.5 12 237 11.5
2005-02-18 08:39:22 51°13.984 2°53.196 239.2 12.1 237 11.5
2005-02-18 08:39:26 51°13.977 2°53.178 239.5 12.1 237 11.7
2005-02-18 08:39:32 51°13.966 2°53.151 239.5 12.1 237 11.6
2005-02-18 08:39:37 51°13.957 2°53.128 239.3 12.1 237 11.6
2005-02-18 08:39:42 51°13.948 2°53.105 239.3 12.1 237 11.6
2005-02-18 08:39:46 51°13.94 2°53.084 239.4 12.2 238 11.7
2005-02-18 08:39:52 51°13.93 2°53.06 239.8 12.2 238 11.7
2005-02-18 08:39:56 51°13.923 2°53.041 239.9 12.2 238 11.7
2005-02-18 08:40:02 51°13.912 2°53.014 239.9 12.2 238 11.7
2005-02-18 08:40:07 51°13.903 2°52.991 240.1 12.2 238 11.8
2005-02-18 08:40:12 51°13.894 2°52.968 240.2 12.2 238 11.8
2005-02-18 08:40:17 51°13.885 2°52.945 240 12.2 238 11.8
2005-02-18 08:40:21 51°13.877 2°52.925 239.8 12.2 238 11.8
2005-02-18 08:40:27 51°13.867 2°52.899 239.6 12.3 238 11.9
2005-02-18 08:40:32 51°13.858 2°52.877 239.6 12.2 238 11.9
2005-02-18 08:40:36 51°13.849 2°52.856 239.5 12.2 238 11.9
2005-02-18 08:40:42 51°13.839 2°52.831 239.5 12.2 238 11.9
2005-02-18 08:40:45 51°13.833 2°52.815 239.6 12.3 238 11.9
2005-02-18 08:40:51 51°13.822 2°52.787 239.5 12.3 238 11.9
2005-02-18 08:40:56 51°13.814 2°52.766 239.7 12.3 238 11.9
2005-02-18 08:41:02 51°13.803 2°52.739 239.9 12.3 238 12
2005-02-18 08:41:06 51°13.795 2°52.718 240.2 12.3 238 11.9
2005-02-18 08:41:12 51°13.785 2°52.693 240.2 12.3 238 12
2005-02-18 08:41:16 51°13.777 2°52.672 240.3 12.3 237 11.9
2005-02-18 08:41:21 51°13.768 2°52.649 240.3 12.3 239 11.9
2005-02-18 08:41:27 51°13.757 2°52.621 240.3 12.2 238 12
2005-02-18 08:41:32 51°13.749 2°52.601 240 12.2 238 12
2005-02-18 08:41:36 51°13.74 2°52.58 240 12.3 237 11.9
2005-02-18 08:41:41 51°13.731 2°52.557 239.7 12.2 237 11.9
2005-02-18 08:41:47 51°13.721 2°52.532 239.5 12.2 237 11.9
2005-02-18 08:41:52 51°13.712 2°52.509 239.3 12.3 237 11.9
2005-02-18 08:41:56 51°13.704 2°52.491 239.7 12.3 237 11.9
2005-02-18 08:42:01 51°13.695 2°52.466 239.8 12.3 238 11.9
2005-02-18 08:42:05 51°13.687 2°52.447 240.1 12.2 237 12
2005-02-18 08:42:12 51°13.675 2°52.417 239.9 12.3 237 12
2005-02-18 08:42:16 51°13.667 2°52.397 239.9 12.3 237 12
2005-02-18 08:42:22 51°13.657 2°52.371 240 12.3 237 12
2005-02-18 08:42:26 51°13.65 2°52.353 240 12.3 238 12.1
2005-02-18 08:42:32 51°13.638 2°52.326 239.9 12.3 238 12.1
2005-02-18 08:42:37 51°13.63 2°52.302 239.7 12.3 238 12.2
2005-02-18 08:42:41 51°13.622 2°52.281 240 12.3 238 12.2
2005-02-18 08:42:46 51°13.613 2°52.258 240.2 12.3 238 12.2
2005-02-18 08:42:52 51°13.602 2°52.233 240.2 12.3 238 12.2
2005-02-18 08:42:56 51°13.594 2°52.213 240 12.3 237 12.1
2005-02-18 08:43:02 51°13.584 2°52.188 239.6 12.3 237 12.2
2005-02-18 08:43:06 51°13.577 2°52.169 239.7 12.4 238 12.2
2005-02-18 08:43:12 51°13.566 2°52.142 239.9 12.4 238 12.2
2005-02-18 08:43:16 51°13.557 2°52.121 240.2 12.4 238 12.1
2005-02-18 08:43:21 51°13.548 2°52.098 240 12.3 238 12.1
2005-02-18 08:43:27 51°13.538 2°52.073 239.9 12.4 237 12.2
2005-02-18 08:43:32 51°13.529 2°52.05 239.8 12.4 237 12.1
2005-02-18 08:43:36 51°13.52 2°52.029 239.7 12.4 237 12.1
2005-02-18 08:43:42 51°13.51 2°52.004 239.8 12.4 238 12.2
2005-02-18 08:43:45 51°13.504 2°51.988 240.1 12.3 238 12.3
2005-02-18 08:43:52 51°13.492 2°51.957 240.2 12.3 238 12.2
2005-02-18 08:43:57 51°13.483 2°51.934 240.2 12.4 239 12.2
2005-02-18 08:44:01 51°13.475 2°51.913 240.5 12.3 238 12.2
2005-02-18 08:44:07 51°13.465 2°51.888 240.5 12.4 239 12.2
2005-02-18 08:44:12 51°13.456 2°51.864 240.7 12.4 238 12.2
2005-02-18 08:44:17 51°13.447 2°51.841 240.7 12.4 238 12.2
2005-02-18 08:44:21 51°13.439 2°51.821 240.3 12.3 238 12.2
2005-02-18 08:44:27 51°13.429 2°51.795 240.2 12.3 238 12.1
2005-02-18 08:44:32 51°13.42 2°51.772 240.2 12.3 238 12.2
2005-02-18 08:44:36 51°13.412 2°51.751 240.2 12.3 238 12.3
2005-02-18 08:44:41 51°13.402 2°51.728 240.2 12.4 238 12.2
2005-02-18 08:44:47 51°13.393 2°51.702 240.4 12.4 238 12.2
2005-02-18 08:44:52 51°13.384 2°51.679 240.5 12.4 238 12.2
2005-02-18 08:44:56 51°13.376 2°51.66 240.6 12.4 238 12.2
2005-02-18 08:45:02 51°13.366 2°51.633 240.6 12.4 238 12.2
2005-02-18 08:45:07 51°13.356 2°51.609 240.6 12.3 238 12.2
2005-02-18 08:45:12 51°13.347 2°51.586 240.2 12.3 238 12.2
2005-02-18 08:45:16 51°13.339 2°51.565 240.2 12.3 238 12.2
2005-02-18 08:45:22 51°13.33 2°51.54 240.4 12.3 238 12.1
2005-02-18 08:45:26 51°13.323 2°51.521 241.1 12.4 239 12.2
2005-02-18 08:45:31 51°13.314 2°51.494 241.5 12.3 240 12.2
2005-02-18 08:45:36 51°13.306 2°51.473 242.2 12.3 240 12.2
2005-02-18 08:45:42 51°13.296 2°51.444 242.4 12.3 240 12.1
2005-02-18 08:45:46 51°13.289 2°51.426 242.4 12.4 240 12.1
2005-02-18 08:45:52 51°13.279 2°51.397 242.4 12.4 241 12.1
2005-02-18 08:45:56 51°13.271 2°51.376 242.4 12.4 241 12.1
2005-02-18 08:46:01 51°13.263 2°51.352 242.4 12.4 241 12.1
2005-02-18 08:46:06 51°13.254 2°51.328 242.4 12.4 241 12.1
2005-02-18 08:46:12 51°13.245 2°51.302 242.4 12.4 241 12.1
2005-02-18 08:46:17 51°13.236 2°51.279 242.3 12.3 240 12.2
2005-02-18 08:46:22 51°13.228 2°51.254 242.3 12.3 240 12.1
2005-02-18 08:46:27 51°13.219 2°51.23 242 12.4 240 12.1
2005-02-18 08:46:32 51°13.21 2°51.207 241.9 12.4 240 12.2
2005-02-18 08:46:37 51°13.202 2°51.183 241.7 12.4 240 12.2
2005-02-18 08:46:41 51°13.194 2°51.162 241.8 12.4 240 12.2
2005-02-18 08:46:46 51°13.186 2°51.141 241.8 12.4 240 12.3
2005-02-18 08:46:52 51°13.176 2°51.112 242 12.4 240 12.3
2005-02-18 08:46:57 51°13.167 2°51.089 242 12.4 240 12.3
2005-02-18 08:47:01 51°13.159 2°51.067 242 12.4 240 12.3
2005-02-18 08:47:07 51°13.15 2°51.041 242 12.4 240 12.3
2005-02-18 08:47:12 51°13.142 2°51.017 241.9 12.4 240 12.3
2005-02-18 08:47:16 51°13.134 2°50.996 241.9 12.4 240 12.2
2005-02-18 08:47:21 51°13.126 2°50.972 241.9 12.4 240 12.3
2005-02-18 08:47:26 51°13.118 2°50.95 241.9 12.4 240 12.3
2005-02-18 08:47:32 51°13.108 2°50.922 242 12.4 240 12.3
2005-02-18 08:47:36 51°13.1 2°50.9 242.1 12.4 241 12.3
2005-02-18 08:47:42 51°13.091 2°50.874 242.2 12.4 240 12.3
2005-02-18 08:47:46 51°13.084 2°50.855 242.4 12.4 241 12.3
2005-02-18 08:47:52 51°13.074 2°50.827 242.5 12.4 241 12.3
2005-02-18 08:47:56 51°13.067 2°50.808 242.6 12.4 241 12.4
2005-02-18 08:48:02 51°13.057 2°50.779 242.6 12.4 241 12.3
2005-02-18 08:48:06 51°13.05 2°50.76 242.6 12.3 240 12.3
2005-02-18 08:48:12 51°13.04 2°50.732 242.3 12.3 240 12.3
2005-02-18 08:48:16 51°13.032 2°50.711 242.1 12.4 240 12.3
2005-02-18 08:48:22 51°13.023 2°50.684 241.8 12.4 240 12.3
2005-02-18 08:48:27 51°13.014 2°50.661 241.8 12.3 240 12.3
2005-02-18 08:48:32 51°13.006 2°50.637 242.2 12.3 241 12.3
2005-02-18 08:48:37 51°12.998 2°50.612 242.3 12.3 241 12.3
2005-02-18 08:48:41 51°12.99 2°50.591 242.5 12.4 241 12.3
2005-02-18 08:48:46 51°12.983 2°50.57 242.6 12.4 241 12.3
2005-02-18 08:48:51 51°12.973 2°50.544 242.3 12.3 240 12.4
2005-02-18 08:48:56 51°12.965 2°50.52 242 12.4 240 12.3
2005-02-18 08:49:02 51°12.955 2°50.494 242.1 12.4 240 12.4
2005-02-18 08:49:07 51°12.947 2°50.471 242.2 12.3 240 12.4
2005-02-18 08:49:11 51°12.939 2°50.45 242.1 12.3 240 12.3
2005-02-18 08:49:17 51°12.929 2°50.423 242 12.4 240 12.3
2005-02-18 08:49:21 51°12.922 2°50.402 242 12.4 240 12.4
2005-02-18 08:49:25 51°12.915 2°50.383 242.3 12.4 240 12.4
2005-02-18 08:49:32 51°12.904 2°50.352 242.4 12.4 240 12.4
2005-02-18 08:49:36 51°12.897 2°50.331 242.6 12.4 241 12.4
2005-02-18 08:49:42 51°12.887 2°50.305 242.6 12.4 241 12.3
2005-02-18 08:49:47 51°12.879 2°50.281 242.4 12.4 240 12.4
2005-02-18 08:49:51 51°12.871 2°50.26 242.3 12.4 240 12.3
2005-02-18 08:49:57 51°12.862 2°50.234 242.3 12.4 240 12.4
2005-02-18 08:50:01 51°12.854 2°50.213 242.3 12.4 241 12.4
2005-02-18 08:50:07 51°12.845 2°50.186 242.4 12.4 241 12.4
2005-02-18 08:50:12 51°12.837 2°50.163 242.5 12.4 241 12.4
2005-02-18 08:50:16 51°12.83 2°50.144 242.7 12.4 241 12.5
2005-02-18 08:50:21 51°12.821 2°50.118 242.7 12.3 241 12.4
2005-02-18 08:50:27 51°12.811 2°50.092 242.7 12.3 241 12.4
2005-02-18 08:50:32 51°12.803 2°50.068 242.7 12.3 241 12.4
2005-02-18 08:50:36 51°12.795 2°50.047 242.7 12.3 241 12.4
2005-02-18 08:50:41 51°12.787 2°50.023 242.3 12.3 240 12.4
2005-02-18 08:50:46 51°12.778 2°49.999 242.2 12.3 240 12.5
2005-02-18 08:50:52 51°12.769 2°49.974 241.9 12.3 240 12.5
2005-02-18 08:50:57 51°12.76 2°49.95 241.8 12.3 240 12.4
2005-02-18 08:51:01 51°12.753 2°49.928 242.1 12.3 240 12.5
2005-02-18 08:51:06 51°12.745 2°49.907 242.4 12.3 241 12.4
2005-02-18 08:51:12 51°12.735 2°49.878 242.7 12.3 241 12.4
2005-02-18 08:51:16 51°12.729 2°49.859 242.9 12.4 241 12.5
2005-02-18 08:51:22 51°12.718 2°49.831 242.9 12.4 241 12.5
2005-02-18 08:51:27 51°12.71 2°49.807 242.9 12.4 241 12.5
2005-02-18 08:51:31 51°12.702 2°49.785 242.6 12.4 240 12.5
2005-02-18 08:51:36 51°12.694 2°49.762 242.4 12.4 240 12.5
2005-02-18 08:51:41 51°12.685 2°49.738 242.4 12.3 240 12.5
2005-02-18 08:51:46 51°12.677 2°49.714 242 12.3 240 12.5
2005-02-18 08:51:51 51°12.668 2°49.691 241.9 12.4 240 12.5
2005-02-18 08:51:56 51°12.66 2°49.669 241.9 12.4 240 12.5
2005-02-18 08:52:02 51°12.65 2°49.641 242.2 12.4 240 12.6
2005-02-18 08:52:07 51°12.642 2°49.617 242.4 12.3 241 12.5
2005-02-18 08:52:12 51°12.633 2°49.593 242.4 12.3 241 12.6
2005-02-18 08:52:16 51°12.626 2°49.572 242.5 12.4 241 12.6
2005-02-18 08:52:22 51°12.616 2°49.546 242.6 12.4 240 12.5
2005-02-18 08:52:27 51°12.608 2°49.522 242.5 12.4 241 12.6
2005-02-18 08:52:32 51°12.599 2°49.498 242.5 12.4 241 12.5
2005-02-18 08:52:37 51°12.591 2°49.475 242.5 12.4 241 12.6
2005-02-18 08:52:42 51°12.582 2°49.451 242.5 12.4 241 12.5
2005-02-18 08:52:47 51°12.574 2°49.427 242.4 12.4 240 12.5
2005-02-18 08:52:52 51°12.565 2°49.403 242.4 12.4 240 12.5
2005-02-18 08:52:56 51°12.559 2°49.384 242.5 12.4 241 12.6
2005-02-18 08:53:01 51°12.55 2°49.358 242.9 12.4 241 12.6
2005-02-18 08:53:05 51°12.543 2°49.339 242.9 12.4 240 12.6
2005-02-18 08:53:12 51°12.532 2°49.308 242.8 12.4 241 12.6
2005-02-18 08:53:17 51°12.523 2°49.284 242.4 12.4 240 12.5
2005-02-18 08:53:21 51°12.516 2°49.263 242.3 12.4 240 12.5
2005-02-18 08:53:26 51°12.507 2°49.239 242.3 12.3 240 12.5
2005-02-18 08:53:32 51°12.498 2°49.213 242.5 12.3 240 12.5
2005-02-18 08:53:37 51°12.489 2°49.189 242.6 12.4 240 12.5
2005-02-18 08:53:41 51°12.481 2°49.168 242.7 12.4 240 12.5
2005-02-18 08:53:46 51°12.474 2°49.147 242.2 12.4 241 12.5
2005-02-18 08:53:52 51°12.464 2°49.118 242.3 12.4 241 12.5
2005-02-18 08:53:56 51°12.457 2°49.099 242.5 12.4 241 12.5
2005-02-18 08:54:02 51°12.447 2°49.07 242.6 12.4 241 12.5
2005-02-18 08:54:06 51°12.439 2°49.049 242.7 12.4 241 12.6
2005-02-18 08:54:12 51°12.43 2°49.023 242.7 12.4 240 12.5
2005-02-18 08:54:16 51°12.422 2°49.001 242.6 12.4 241 12.6
2005-02-18 08:54:21 51°12.414 2°48.977 242.4 12.4 240 12.6
2005-02-18 08:54:27 51°12.405 2°48.95 242.3 12.4 240 12.5
2005-02-18 08:54:32 51°12.396 2°48.927 242.3 12.4 240 12.6
2005-02-18 08:54:36 51°12.389 2°48.908 242.4 12.4 240 12.6
2005-02-18 08:54:41 51°12.38 2°48.882 242.2 12.4 240 12.5
2005-02-18 08:54:47 51°12.371 2°48.856 242.2 12.4 240 12.5
2005-02-18 08:54:52 51°12.362 2°48.832 242.2 12.4 240 12.5
2005-02-18 08:54:56 51°12.355 2°48.813 242.4 12.4 240 12.6
2005-02-18 08:55:02 51°12.345 2°48.784 242.5 12.4 240 12.6
2005-02-18 08:55:06 51°12.339 2°48.765 242.6 12.4 240 12.6
2005-02-18 08:55:12 51°12.328 2°48.736 242.6 12.4 241 12.6
2005-02-18 08:55:16 51°12.321 2°48.717 242.4 12.5 240 12.6
2005-02-18 08:55:21 51°12.312 2°48.691 242.2 12.4 240 12.7
2005-02-18 08:55:25 51°12.305 2°48.672 241.9 12.4 240 12.6
2005-02-18 08:55:32 51°12.294 2°48.641 241.8 12.4 240 12.6
2005-02-18 08:55:37 51°12.285 2°48.618 242 12.4 240 12.6
2005-02-18 08:55:41 51°12.277 2°48.596 242 12.5 240 12.6
2005-02-18 08:55:46 51°12.27 2°48.575 242.3 12.4 241 12.6
2005-02-18 08:55:52 51°12.26 2°48.546 242.5 12.4 241 12.7
2005-02-18 08:55:57 51°12.251 2°48.522 242.4 12.4 240 12.6
2005-02-18 08:56:01 51°12.243 2°48.5 242.5 12.5 240 12.6
2005-02-18 08:56:07 51°12.234 2°48.474 242.5 12.5 241 12.6
2005-02-18 08:56:12 51°12.225 2°48.45 242.4 12.5 241 12.6
2005-02-18 08:56:16 51°12.218 2°48.429 242.3 12.5 240 12.6
2005-02-18 08:56:21 51°12.209 2°48.405 242.3 12.5 241 12.7
2005-02-18 08:56:26 51°12.201 2°48.383 242.4 12.5 240 12.7
2005-02-18 08:56:32 51°12.191 2°48.354 242.6 12.5 241 12.7
2005-02-18 08:56:36 51°12.183 2°48.333 242.5 12.5 240 12.7
2005-02-18 08:56:42 51°12.174 2°48.307 241.9 12.5 240 12.7
2005-02-18 08:56:47 51°12.165 2°48.283 241.6 12.5 239 12.7
2005-02-18 08:56:52 51°12.156 2°48.259 241.7 12.5 240 12.6
2005-02-18 08:56:57 51°12.148 2°48.236 242.2 12.5 240 12.6
2005-02-18 08:57:02 51°12.139 2°48.212 242.4 12.4 240 12.7
2005-02-18 08:57:07 51°12.131 2°48.188 242.4 12.4 240 12.6
2005-02-18 08:57:12 51°12.122 2°48.164 242.4 12.4 240 12.6
2005-02-18 08:57:16 51°12.115 2°48.145 242.3 12.4 240 12.6
2005-02-18 08:57:21 51°12.105 2°48.12 242.2 12.4 240 12.6
2005-02-18 08:57:27 51°12.096 2°48.093 241.9 12.4 240 12.6
2005-02-18 08:57:32 51°12.087 2°48.07 241.8 12.4 240 12.6
2005-02-18 08:57:36 51°12.08 2°48.051 241.8 12.4 240 12.6
2005-02-18 08:57:41 51°12.071 2°48.025 242 12.4 240 12.6
2005-02-18 08:57:46 51°12.063 2°48.003 242.4 12.4 240 12.6
2005-02-18 08:57:52 51°12.053 2°47.975 242.6 12.4 240 12.6
2005-02-18 08:57:57 51°12.045 2°47.951 242.6 12.5 241 12.6
2005-02-18 08:58:01 51°12.037 2°47.929 243 12.5 241 12.6
2005-02-18 08:58:07 51°12.028 2°47.903 243 12.5 241 12.6
2005-02-18 08:58:12 51°12.019 2°47.879 243 12.5 241 12.6
2005-02-18 08:58:17 51°12.011 2°47.855 243 12.5 240 12.5
2005-02-18 08:58:22 51°12.002 2°47.831 242.6 12.5 240 12.6
2005-02-18 08:58:25 51°11.996 2°47.814 241.9 12.5 240 12.5
2005-02-18 08:58:32 51°11.984 2°47.783 241.9 12.6 240 12.6
2005-02-18 08:58:36 51°11.977 2°47.764 242.2 12.6 240 12.5
2005-02-18 08:58:41 51°11.968 2°47.737 242.4 12.6 240 12.5
2005-02-18 08:58:47 51°11.958 2°47.711 242.5 12.5 240 12.5
2005-02-18 08:58:51 51°11.95 2°47.689 242.6 12.5 240 12.5
2005-02-18 08:58:56 51°11.943 2°47.667 242.5 12.5 240 12.5
2005-02-18 08:59:02 51°11.932 2°47.638 242.4 12.7 240 12.5
2005-02-18 08:59:07 51°11.923 2°47.614 242.6 12.6 240 12.4
2005-02-18 08:59:11 51°11.916 2°47.592 242.6 12.7 240 12.4
2005-02-18 08:59:17 51°11.906 2°47.565 242.8 12.6 241 12.4
2005-02-18 08:59:22 51°11.898 2°47.541 242.9 12.6 241 12.4
2005-02-18 08:59:27 51°11.889 2°47.517 242.7 12.6 241 12.4
2005-02-18 08:59:32 51°11.88 2°47.492 242.7 12.7 240 12.4
2005-02-18 08:59:37 51°11.871 2°47.468 242.7 12.6 240 12.4
2005-02-18 08:59:42 51°11.862 2°47.444 242.3 12.6 240 12.3
2005-02-18 08:59:47 51°11.854 2°47.42 241.8 12.7 239 12.3
2005-02-18 08:59:52 51°11.845 2°47.396 241.6 12.7 239 12.3
2005-02-18 08:59:56 51°11.837 2°47.374 241.9 12.7 239 12.2
2005-02-18 09:00:02 51°11.827 2°47.347 242.3 12.7 239 12.2
2005-02-18 09:00:07 51°11.818 2°47.323 242.4 12.7 240 12.2
2005-02-18 09:00:12 51°11.809 2°47.298 242.4 12.7 240 12.2
2005-02-18 09:00:17 51°11.801 2°47.274 242.4 12.7 240 12.2
2005-02-18 09:00:21 51°11.793 2°47.253 242.1 12.7 239 12.1
2005-02-18 09:00:26 51°11.784 2°47.228 241.6 12.7 239 12.2
2005-02-18 09:00:32 51°11.774 2°47.202 241.8 12.7 239 12.1
2005-02-18 09:00:36 51°11.767 2°47.182 241.9 12.7 240 12.1
2005-02-18 09:00:42 51°11.756 2°47.153 241.8 12.7 240 12.1
2005-02-18 09:00:46 51°11.748 2°47.131 241.7 12.7 239 12
2005-02-18 09:00:51 51°11.739 2°47.108 241.5 12.7 239 11.9
2005-02-18 09:00:57 51°11.729 2°47.081 241.4 12.7 239 11.9
2005-02-18 09:01:02 51°11.72 2°47.057 241.5 12.7 239 11.9
2005-02-18 09:01:07 51°11.712 2°47.033 241.7 12.7 239 11.8
2005-02-18 09:01:12 51°11.703 2°47.008 242.1 12.7 240 11.9
2005-02-18 09:01:16 51°11.695 2°46.986 242.6 12.7 240 11.8
2005-02-18 09:01:22 51°11.686 2°46.96 242.6 12.7 240 11.8
2005-02-18 09:01:27 51°11.677 2°46.935 242.6 12.6 240 11.8
2005-02-18 09:01:32 51°11.67 2°46.91 242.9 12.6 243 11.7
2005-02-18 09:01:36 51°11.663 2°46.887 244.7 12.6 244 11.8
2005-02-18 09:01:41 51°11.656 2°46.862 246.5 12.6 244 11.8
2005-02-18 09:01:47 51°11.648 2°46.833 247.9 12.6 246 11.8
2005-02-18 09:01:52 51°11.641 2°46.808 248.5 12.6 247 11.9
2005-02-18 09:01:56 51°11.636 2°46.787 248.9 12.6 248 11.8
2005-02-18 09:02:02 51°11.628 2°46.756 249.4 12.6 248 11.8
2005-02-18 09:02:07 51°11.621 2°46.73 249.4 12.6 248 11.8
2005-02-18 09:02:12 51°11.614 2°46.704 249.4 12.6 248 11.9
2005-02-18 09:02:17 51°11.608 2°46.678 249.4 12.7 247 11.9
2005-02-18 09:02:22 51°11.601 2°46.653 249.4 12.7 248 11.8
2005-02-18 09:02:26 51°11.596 2°46.632 249.4 12.7 247 11.9
2005-02-18 09:02:32 51°11.588 2°46.601 249.3 12.7 247 11.9
2005-02-18 09:02:36 51°11.582 2°46.58 249.5 12.6 247 11.9
2005-02-18 09:02:42 51°11.574 2°46.549 249.3 12.6 247 12
2005-02-18 09:02:46 51°11.568 2°46.526 249.1 12.6 247 12
2005-02-18 09:02:51 51°11.562 2°46.5 249.3 12.8 247 12
2005-02-18 09:02:57 51°11.555 2°46.471 249.8 12.7 249 12
2005-02-18 09:03:02 51°11.548 2°46.445 250.1 12.6 248 12.1
2005-02-18 09:03:07 51°11.541 2°46.419 250.1 12.7 248 12.1
2005-02-18 09:03:12 51°11.535 2°46.393 249.6 12.6 248 12.1
2005-02-18 09:03:16 51°11.529 2°46.37 249 12.7 247 12.1
2005-02-18 09:03:21 51°11.522 2°46.344 248.9 12.7 248 12.1
2005-02-18 09:03:27 51°11.514 2°46.316 249.4 12.7 248 12.1
2005-02-18 09:03:32 51°11.508 2°46.29 249.5 12.7 248 12.2
2005-02-18 09:03:37 51°11.501 2°46.264 249.5 12.6 248 12.2
2005-02-18 09:03:41 51°11.495 2°46.241 249.2 12.6 247 12.2
2005-02-18 09:03:47 51°11.488 2°46.212 248.9 12.6 247 12.2
2005-02-18 09:03:52 51°11.481 2°46.187 249 12.7 248 12.2
2005-02-18 09:03:56 51°11.475 2°46.163 249.3 12.7 248 12.3
2005-02-18 09:04:01 51°11.468 2°46.137 249.6 12.6 248 12.3
2005-02-18 09:04:07 51°11.461 2°46.109 249.6 12.6 247 12.2
2005-02-18 09:04:12 51°11.454 2°46.083 249.2 12.7 247 12.2
2005-02-18 09:04:16 51°11.448 2°46.06 249.1 12.7 247 12.3
2005-02-18 09:04:22 51°11.441 2°46.031 249.1 12.7 247 12.3
2005-02-18 09:04:26 51°11.436 2°46.011 249.3 12.7 248 12.2
2005-02-18 09:04:32 51°11.427 2°45.98 249.6 12.7 248 12.2
2005-02-18 09:04:36 51°11.422 2°45.959 249.9 12.6 248 12.3
2005-02-18 09:04:42 51°11.414 2°45.928 249.7 12.6 248 12.3
2005-02-18 09:04:47 51°11.408 2°45.902 249.4 12.7 247 12.3
2005-02-18 09:04:51 51°11.402 2°45.878 249.5 12.7 248 12.3
2005-02-18 09:04:57 51°11.394 2°45.85 249.6 12.7 248 12.3
2005-02-18 09:05:01 51°11.388 2°45.827 249.6 12.6 248 12.3
2005-02-18 09:05:06 51°11.382 2°45.804 249.4 12.7 248 12.3
2005-02-18 09:05:12 51°11.374 2°45.772 249.4 12.7 248 12.3
2005-02-18 09:05:16 51°11.368 2°45.749 249.4 12.7 248 12.3
2005-02-18 09:05:21 51°11.361 2°45.723 249.6 12.6 248 12.3
2005-02-18 09:05:26 51°11.355 2°45.7 249.6 12.6 248 12.3
2005-02-18 09:05:31 51°11.348 2°45.672 249.4 12.6 248 12.3
2005-02-18 09:05:37 51°11.341 2°45.643 249.4 12.6 248 12.3
2005-02-18 09:05:41 51°11.335 2°45.62 249.6 12.6 248 12.3
2005-02-18 09:05:47 51°11.328 2°45.592 249.7 12.6 248 12.3
2005-02-18 09:05:52 51°11.321 2°45.566 249.7 12.6 248 12.3
2005-02-18 09:05:57 51°11.315 2°45.54 249.7 12.6 248 12.3
2005-02-18 09:06:01 51°11.309 2°45.517 249.7 12.6 248 12.3
2005-02-18 09:06:06 51°11.303 2°45.494 249.7 12.6 248 12.3
2005-02-18 09:06:12 51°11.295 2°45.463 249.6 12.6 248 12.2
2005-02-18 09:06:17 51°11.288 2°45.437 249.5 12.5 247 12.3
2005-02-18 09:06:21 51°11.282 2°45.414 249.3 12.5 247 12.2
2005-02-18 09:06:27 51°11.274 2°45.384 249.1 12.5 247 12.2
2005-02-18 09:06:32 51°11.268 2°45.361 249.1 12.5 247 12.2
2005-02-18 09:06:36 51°11.262 2°45.338 248.9 12.5 248 12.2
2005-02-18 09:06:41 51°11.255 2°45.312 249.2 12.5 247 12.2
2005-02-18 09:06:46 51°11.249 2°45.289 249.2 12.5 248 12.2
2005-02-18 09:06:52 51°11.241 2°45.259 249.5 12.5 247 12.2
2005-02-18 09:06:56 51°11.236 2°45.238 249.5 12.6 247 12.2
2005-02-18 09:07:02 51°11.228 2°45.208 249.5 12.6 247 12.2
2005-02-18 09:07:07 51°11.221 2°45.182 249.5 12.5 248 12.2
2005-02-18 09:07:12 51°11.215 2°45.156 249.5 12.5 248 12.2
2005-02-18 09:07:16 51°11.21 2°45.136 249.3 12.5 248 12.2
2005-02-18 09:07:21 51°11.203 2°45.107 250.2 12.5 249 12.2
2005-02-18 09:07:27 51°11.196 2°45.078 251.1 12.6 250 12.2
2005-02-18 09:07:31 51°11.191 2°45.054 251.8 12.6 251 12.2
2005-02-18 09:07:36 51°11.186 2°45.028 252.3 12.6 251 12.2
2005-02-18 09:07:42 51°11.18 2°44.999 253.1 12.6 251 12.2
2005-02-18 09:07:46 51°11.175 2°44.978 253.4 12.5 252 12.2
2005-02-18 09:07:52 51°11.169 2°44.946 253.5 12.6 252 12.2
2005-02-18 09:07:57 51°11.163 2°44.92 253.5 12.6 252 12.3
2005-02-18 09:08:02 51°11.158 2°44.894 253.5 12.5 252 12.3
2005-02-18 09:08:07 51°11.152 2°44.868 253.3 12.5 251 12.3
2005-02-18 09:08:11 51°11.147 2°44.844 253 12.5 251 12.3
2005-02-18 09:08:17 51°11.141 2°44.816 252.7 12.6 250 12.3
2005-02-18 09:08:22 51°11.135 2°44.79 252.5 12.5 251 12.3
2005-02-18 09:08:25 51°11.13 2°44.772 252.1 12.5 250 12.3
2005-02-18 09:08:32 51°11.123 2°44.738 252.2 12.6 251 12.2
2005-02-18 09:08:36 51°11.118 2°44.717 252.6 12.5 251 12.3
2005-02-18 09:08:42 51°11.112 2°44.685 252.9 12.5 251 12.3
2005-02-18 09:08:46 51°11.107 2°44.664 253 12.5 251 12.3
2005-02-18 09:08:52 51°11.1 2°44.633 252.9 12.5 251 12.3
2005-02-18 09:08:56 51°11.095 2°44.61 252.7 12.5 250 12.3
2005-02-18 09:09:02 51°11.088 2°44.581 252.5 12.5 250 12.3
2005-02-18 09:09:07 51°11.083 2°44.555 252.3 12.5 250 12.3
2005-02-18 09:09:12 51°11.077 2°44.529 252 12.5 250 12.3
2005-02-18 09:09:17 51°11.071 2°44.503 252.3 12.6 251 12.3
2005-02-18 09:09:22 51°11.065 2°44.477 252.6 12.6 251 12.4
2005-02-18 09:09:26 51°11.061 2°44.456 252.6 12.6 251 12.3
2005-02-18 09:09:32 51°11.054 2°44.424 252.6 12.6 251 12.3
2005-02-18 09:09:36 51°11.048 2°44.401 252.6 12.6 251 12.3
2005-02-18 09:09:41 51°11.042 2°44.375 252.5 12.6 251 12.3
2005-02-18 09:09:46 51°11.037 2°44.351 252.1 12.6 250 12.3
2005-02-18 09:09:52 51°11.03 2°44.32 252 12.6 250 12.3
2005-02-18 09:09:56 51°11.025 2°44.296 252.1 12.6 251 12.3
2005-02-18 09:10:01 51°11.019 2°44.27 252.5 12.6 251 12.3
2005-02-18 09:10:06 51°11.014 2°44.246 252.8 12.6 251 12.3
2005-02-18 09:10:12 51°11.007 2°44.214 252.9 12.6 251 12.3
2005-02-18 09:10:16 51°11.002 2°44.191 253 12.6 251 12.2
2005-02-18 09:10:22 51°10.995 2°44.162 253 12.6 251 12.3
2005-02-18 09:10:27 51°10.99 2°44.136 252.9 12.6 251 12.3
2005-02-18 09:10:31 51°10.984 2°44.112 252.5 12.6 250 12.3
2005-02-18 09:10:36 51°10.978 2°44.086 252.5 12.6 250 12.3
2005-02-18 09:10:42 51°10.972 2°44.057 252.3 12.6 250 12.3
2005-02-18 09:10:47 51°10.966 2°44.031 252.2 12.6 250 12.3
2005-02-18 09:10:52 51°10.96 2°44.005 252.2 12.6 250 12.3
2005-02-18 09:10:56 51°10.955 2°43.984 252.2 12.6 250 12.3
2005-02-18 09:11:02 51°10.948 2°43.952 252.3 12.6 250 12.4
2005-02-18 09:11:06 51°10.942 2°43.929 252.3 12.6 250 12.4
2005-02-18 09:11:12 51°10.936 2°43.9 252.3 12.6 250 12.3
2005-02-18 09:11:17 51°10.93 2°43.873 252.3 12.6 250 12.3
2005-02-18 09:11:22 51°10.924 2°43.847 252.4 12.7 250 12.4
2005-02-18 09:11:26 51°10.919 2°43.824 252.6 12.7 251 12.4
2005-02-18 09:11:32 51°10.913 2°43.794 252.8 12.6 251 12.4
2005-02-18 09:11:37 51°10.907 2°43.768 253 12.6 251 12.4
2005-02-18 09:11:41 51°10.902 2°43.744 253.2 12.6 251 12.4
2005-02-18 09:11:46 51°10.897 2°43.718 253.4 12.6 251 12.4
2005-02-18 09:11:52 51°10.891 2°43.689 253.5 12.6 251 12.4
2005-02-18 09:11:57 51°10.885 2°43.663 253.5 12.6 251 12.4
2005-02-18 09:12:02 51°10.879 2°43.636 253.4 12.6 251 12.4
2005-02-18 09:12:06 51°10.874 2°43.613 253.4 12.6 251 12.4
2005-02-18 09:12:12 51°10.868 2°43.584 253.1 12.6 251 12.4
2005-02-18 09:12:16 51°10.863 2°43.563 253.1 12.6 251 12.4
2005-02-18 09:12:22 51°10.856 2°43.531 252.9 12.6 251 12.4
2005-02-18 09:12:26 51°10.851 2°43.508 252.8 12.6 250 12.4
2005-02-18 09:12:31 51°10.845 2°43.482 252.5 12.6 250 12.4
2005-02-18 09:12:36 51°10.839 2°43.455 252.5 12.6 250 12.4
2005-02-18 09:12:42 51°10.833 2°43.427 252.4 12.6 250 12.4
2005-02-18 09:12:47 51°10.826 2°43.401 252.1 12.6 249 12.3
2005-02-18 09:12:52 51°10.82 2°43.374 251.8 12.6 250 12.4
2005-02-18 09:12:56 51°10.815 2°43.351 251.5 12.7 250 12.4
2005-02-18 09:13:01 51°10.809 2°43.325 251.6 12.7 250 12.4
2005-02-18 09:13:07 51°10.802 2°43.296 252.1 12.6 250 12.4
2005-02-18 09:13:12 51°10.797 2°43.269 252.3 12.6 250 12.3
2005-02-18 09:13:16 51°10.791 2°43.246 252.5 12.7 250 12.3
2005-02-18 09:13:22 51°10.785 2°43.217 252.6 12.7 250 12.3
2005-02-18 09:13:26 51°10.78 2°43.196 252.6 12.7 251 12.3
2005-02-18 09:13:32 51°10.773 2°43.164 252.6 12.7 251 12.4
2005-02-18 09:13:36 51°10.769 2°43.143 252.6 12.7 250 12.3
2005-02-18 09:13:42 51°10.762 2°43.111 252.6 12.7 250 12.3
2005-02-18 09:13:46 51°10.757 2°43.09 252.6 12.6 250 12.3
2005-02-18 09:13:51 51°10.75 2°43.061 252.5 12.7 250 12.4
2005-02-18 09:13:57 51°10.744 2°43.032 252.5 12.7 250 12.4
2005-02-18 09:14:02 51°10.738 2°43.006 252.3 12.7 250 12.4
2005-02-18 09:14:07 51°10.732 2°42.98 252.3 12.7 250 12.4
2005-02-18 09:14:11 51°10.726 2°42.956 252.2 12.7 250 12.4
2005-02-18 09:14:17 51°10.719 2°42.927 252.2 12.7 250 12.4
2005-02-18 09:14:21 51°10.714 2°42.904 252.1 12.7 250 12.4
2005-02-18 09:14:27 51°10.707 2°42.872 252 12.7 250 12.4
2005-02-18 09:14:32 51°10.701 2°42.849 251.8 12.7 250 12.3
2005-02-18 09:14:37 51°10.695 2°42.822 251.8 12.7 250 12.3
2005-02-18 09:14:41 51°10.69 2°42.799 251.7 12.7 250 12.3
2005-02-18 09:14:47 51°10.683 2°42.77 251.8 12.7 250 12.4
2005-02-18 09:14:52 51°10.677 2°42.744 252.1 12.7 250 12.4
2005-02-18 09:14:57 51°10.671 2°42.717 252.2 12.7 250 12.3
2005-02-18 09:15:01 51°10.666 2°42.693 252.4 12.7 250 12.4
2005-02-18 09:15:06 51°10.66 2°42.667 252.4 12.7 250 12.4
2005-02-18 09:15:12 51°10.653 2°42.638 252.4 12.7 250 12.4
2005-02-18 09:15:16 51°10.649 2°42.617 252.3 12.7 251 12.4
2005-02-18 09:15:21 51°10.643 2°42.591 252.4 12.7 251 12.4
2005-02-18 09:15:26 51°10.637 2°42.564 252.5 12.7 250 12.4
2005-02-18 09:15:32 51°10.63 2°42.533 252.4 12.7 250 12.4
2005-02-18 09:15:37 51°10.624 2°42.506 252.3 12.7 250 12.3
2005-02-18 09:15:41 51°10.618 2°42.483 252.1 12.7 250 12.4
2005-02-18 09:15:46 51°10.612 2°42.456 251.9 12.7 250 12.3
2005-02-18 09:15:52 51°10.606 2°42.428 251.7 12.7 250 12.4
2005-02-18 09:15:56 51°10.6 2°42.404 251.6 12.7 250 12.3
2005-02-18 09:16:02 51°10.594 2°42.375 251.8 12.7 250 12.4
2005-02-18 09:16:06 51°10.589 2°42.353 252 12.8 251 12.3
2005-02-18 09:16:12 51°10.582 2°42.321 252.5 12.7 251 12.4
2005-02-18 09:16:17 51°10.576 2°42.295 252.5 12.7 251 12.4
2005-02-18 09:16:22 51°10.57 2°42.269 252.5 12.7 250 12.3
2005-02-18 09:16:27 51°10.564 2°42.242 252.3 12.7 250 12.4
2005-02-18 09:16:32 51°10.558 2°42.216 252 12.7 250 12.4
2005-02-18 09:16:36 51°10.553 2°42.192 251.8 12.7 250 12.4
2005-02-18 09:16:42 51°10.546 2°42.162 251.9 12.8 250 12.4
2005-02-18 09:16:47 51°10.54 2°42.136 252.2 12.8 250 12.4
2005-02-18 09:16:52 51°10.535 2°42.109 252.3 12.8 250 12.4
2005-02-18 09:16:57 51°10.529 2°42.082 252.3 12.8 250 12.4
2005-02-18 09:17:01 51°10.523 2°42.058 252.1 12.8 250 12.4
2005-02-18 09:17:07 51°10.517 2°42.029 252 12.8 250 12.4
2005-02-18 09:17:12 51°10.511 2°42.002 251.8 12.8 250 12.4
2005-02-18 09:17:16 51°10.505 2°41.978 251.8 12.8 250 12.4
2005-02-18 09:17:22 51°10.499 2°41.949 252.2 12.8 250 12.4
2005-02-18 09:17:27 51°10.493 2°41.922 252.2 12.8 250 12.5
2005-02-18 09:17:32 51°10.487 2°41.896 252.1 12.8 250 12.4
2005-02-18 09:17:36 51°10.482 2°41.872 251.9 12.8 251 12.4
2005-02-18 09:17:41 51°10.476 2°41.845 252 12.8 250 12.4
2005-02-18 09:17:45 51°10.471 2°41.824 252.3 12.8 250 12.4
2005-02-18 09:17:52 51°10.462 2°41.79 251.4 12.7 248 12.5
2005-02-18 09:17:56 51°10.457 2°41.769 249.9 12.7 248 12.5
2005-02-18 09:18:01 51°10.449 2°41.741 248.8 12.7 246 12.5
2005-02-18 09:18:07 51°10.44 2°41.713 248 12.7 246 12.4
2005-02-18 09:18:12 51°10.433 2°41.687 247.5 12.8 245 12.4
2005-02-18 09:18:16 51°10.427 2°41.664 247.3 12.8 246 12.4
2005-02-18 09:18:22 51°10.418 2°41.636 247.3 12.8 246 12.4
2005-02-18 09:18:27 51°10.411 2°41.61 247.3 12.7 245 12.4
2005-02-18 09:18:32 51°10.403 2°41.585 246.9 12.7 245 12.4
2005-02-18 09:18:37 51°10.396 2°41.56 246.5 12.8 245 12.4
2005-02-18 09:18:41 51°10.389 2°41.537 246.4 12.8 245 12.4
2005-02-18 09:18:46 51°10.382 2°41.511 246.7 12.8 245 12.4
2005-02-18 09:18:52 51°10.374 2°41.482 247.2 12.8 245 12.3
2005-02-18 09:18:57 51°10.366 2°41.457 247.4 12.8 245 12.3
2005-02-18 09:19:01 51°10.359 2°41.434 247.4 12.8 245 12.3
2005-02-18 09:19:06 51°10.352 2°41.408 247.2 12.8 245 12.4
2005-02-18 09:19:12 51°10.344 2°41.38 246.8 12.8 245 12.3
2005-02-18 09:19:17 51°10.336 2°41.354 246.8 12.8 245 12.3
2005-02-18 09:19:22 51°10.329 2°41.328 246.7 12.8 245 12.3
2005-02-18 09:19:27 51°10.321 2°41.303 246.7 12.8 245 12.3
2005-02-18 09:19:32 51°10.314 2°41.277 246.8 12.8 245 12.3
2005-02-18 09:19:36 51°10.307 2°41.254 246.9 12.8 245 12.3
2005-02-18 09:19:41 51°10.299 2°41.229 246.9 12.8 245 12.2
2005-02-18 09:19:47 51°10.291 2°41.2 247 12.8 245 12.2
2005-02-18 09:19:52 51°10.284 2°41.175 247.2 12.8 245 12.2
2005-02-18 09:19:57 51°10.276 2°41.149 247.2 12.8 245 12.2
2005-02-18 09:20:02 51°10.269 2°41.124 247 12.8 245 12.2
2005-02-18 09:20:07 51°10.26 2°41.096 247 12.8 245 12.3
2005-02-18 09:20:12 51°10.254 2°41.073 246.9 12.8 245 12.2
2005-02-18 09:20:16 51°10.247 2°41.05 246.8 12.8 244 12.2
2005-02-18 09:20:22 51°10.238 2°41.022 246.7 12.8 244 12.2
2005-02-18 09:20:27 51°10.231 2°40.996 246.9 12.8 245 12.2
2005-02-18 09:20:32 51°10.224 2°40.97 247.3 12.8 245 12.2
2005-02-18 09:20:36 51°10.217 2°40.947 247.4 12.8 245 12.3
2005-02-18 09:20:41 51°10.209 2°40.922 247.5 12.8 245 12.3
2005-02-18 09:20:46 51°10.203 2°40.898 247.5 12.8 245 12.2
2005-02-18 09:20:52 51°10.194 2°40.868 247.3 12.8 245 12.1
2005-02-18 09:20:57 51°10.186 2°40.842 247.1 12.8 245 12.2
2005-02-18 09:21:02 51°10.179 2°40.816 247.1 12.8 245 12.2
2005-02-18 09:21:07 51°10.171 2°40.791 246.9 12.8 245 12.1
2005-02-18 09:21:12 51°10.164 2°40.765 247.2 12.8 245 12.2
2005-02-18 09:21:17 51°10.156 2°40.739 247.6 12.8 246 12.1
2005-02-18 09:21:22 51°10.149 2°40.713 247.7 12.8 245 12.1
2005-02-18 09:21:27 51°10.141 2°40.688 247.3 12.8 245 12.1
2005-02-18 09:21:32 51°10.134 2°40.662 247.2 12.8 245 12.1
2005-02-18 09:21:37 51°10.126 2°40.637 247.2 12.8 245 12.1
2005-02-18 09:21:42 51°10.119 2°40.611 247.1 12.8 245 12.1
2005-02-18 09:21:46 51°10.113 2°40.59 246.8 12.9 245 12.2
2005-02-18 09:21:51 51°10.104 2°40.562 247 12.9 245 12.2
2005-02-18 09:21:56 51°10.097 2°40.536 247.4 12.8 246 12.1
2005-02-18 09:22:02 51°10.089 2°40.508 247.5 12.8 246 12.1
2005-02-18 09:22:06 51°10.083 2°40.487 247.5 12.9 246 12.1
2005-02-18 09:22:12 51°10.074 2°40.457 247.5 12.9 245 12.1
2005-02-18 09:22:16 51°10.067 2°40.433 246.9 12.9 245 12.1
2005-02-18 09:22:22 51°10.059 2°40.405 246.9 12.9 245 12.1
2005-02-18 09:22:27 51°10.051 2°40.376 247.1 12.9 245 12.2
2005-02-18 09:22:32 51°10.044 2°40.353 247.5 12.9 245 12.1
2005-02-18 09:22:37 51°10.036 2°40.327 247.4 12.9 245 12.2
2005-02-18 09:22:41 51°10.029 2°40.304 247.1 13 245 12.1
2005-02-18 09:22:47 51°10.021 2°40.275 247.1 13 245 12
2005-02-18 09:22:52 51°10.013 2°40.25 247.1 12.9 245 12.1
2005-02-18 09:22:56 51°10.007 2°40.226 247.1 12.9 245 11.5
2005-02-18 09:23:02 51°9.998 2°40.198 246.9 12.9 244 12.1
2005-02-18 09:23:06 51°9.992 2°40.177 246.8 12.9 245 12
2005-02-18 09:23:12 51°9.984 2°40.145 246.9 12.9 245 12.1
2005-02-18 09:23:17 51°9.98 2°40.117 249.5 12.9 245 11.9
2005-02-18 09:23:21 51°9.976 2°40.092 254.2 12.9 256 12
2005-02-18 09:23:27 51°9.973 2°40.062 258.2 12.9 260 12.1
2005-02-18 09:23:32 51°9.971 2°40.033 261.2 12.9 260 12.1
2005-02-18 09:23:37 51°9.969 2°40.005 263.4 12.9 264 12.2
2005-02-18 09:23:41 51°9.967 2°39.979 265.3 12.9 264 12
2005-02-18 09:23:45 51°9.966 2°39.956 266.2 13 265 12.2
2005-02-18 09:23:52 51°9.964 2°39.919 266.8 13 265 12.2
2005-02-18 09:23:57 51°9.962 2°39.891 266.9 13 265 12.3
2005-02-18 09:24:01 51°9.961 2°39.865 266.9 13 265 12.3
2005-02-18 09:24:06 51°9.959 2°39.836 266.6 13 265 12.3
2005-02-18 09:24:12 51°9.957 2°39.805 266.3 13 265 12.3
2005-02-18 09:24:16 51°9.956 2°39.779 266.3 13 264 12.3
2005-02-18 09:24:22 51°9.954 2°39.748 266.3 13 265 12.4
2005-02-18 09:24:27 51°9.952 2°39.719 266.6 13 265 12.4
2005-02-18 09:24:32 51°9.951 2°39.69 266.6 13 265 12.3
2005-02-18 09:24:36 51°9.949 2°39.668 266.6 13 265 12.5
2005-02-18 09:24:42 51°9.947 2°39.633 266.6 13 265 12.6
2005-02-18 09:24:46 51°9.946 2°39.611 266.9 13 265 12.6
2005-02-18 09:24:52 51°9.944 2°39.576 266.6 13 265 12.6
2005-02-18 09:24:56 51°9.943 2°39.551 266.3 13 265 12.7
2005-02-18 09:25:02 51°9.94 2°39.52 266.3 13 265 12.7
2005-02-18 09:25:07 51°9.939 2°39.491 266 13 265 12.8
2005-02-18 09:25:12 51°9.937 2°39.463 265.7 12.9 264 12.8
2005-02-18 09:25:16 51°9.936 2°39.437 265.8 12.9 264 12.8
2005-02-18 09:25:22 51°9.934 2°39.406 266.1 12.9 264 12.7
2005-02-18 09:25:27 51°9.932 2°39.378 266.2 12.9 265 12.9
2005-02-18 09:25:31 51°9.931 2°39.352 266.3 12.9 265 13
2005-02-18 09:25:37 51°9.929 2°39.321 266.3 12.9 265 13.1
2005-02-18 09:25:42 51°9.927 2°39.293 266.5 12.9 265 13.2
2005-02-18 09:25:47 51°9.926 2°39.264 266.3 12.9 265 13.2
2005-02-18 09:25:52 51°9.924 2°39.236 266.1 12.9 264 13.1
2005-02-18 09:25:56 51°9.922 2°39.211 265.7 12.9 264 13.4
2005-02-18 09:26:02 51°9.92 2°39.18 265.8 12.9 264 13.5
2005-02-18 09:26:06 51°9.919 2°39.154 265.8 12.9 265 13.5
2005-02-18 09:26:12 51°9.917 2°39.123 265.9 12.9 265 13.6
2005-02-18 09:26:16 51°9.916 2°39.097 266.2 12.9 265 13.6
2005-02-18 09:26:22 51°9.914 2°39.066 266.2 12.9 265 13.7
2005-02-18 09:26:26 51°9.912 2°39.044 266.2 12.8 264 13.8
2005-02-18 09:26:32 51°9.91 2°39.01 265.9 12.8 264 13.8
2005-02-18 09:26:37 51°9.909 2°38.982 265.8 12.8 264 14
2005-02-18 09:26:41 51°9.907 2°38.957 265.8 12.8 264 14.1
2005-02-18 09:26:47 51°9.905 2°38.923 265.6 12.8 264 14.1
2005-02-18 09:26:52 51°9.903 2°38.898 265.6 12.8 264 14.2
2005-02-18 09:26:57 51°9.901 2°38.869 265.5 12.8 264 14.2
2005-02-18 09:27:02 51°9.9 2°38.841 265.5 12.8 264 14.1
2005-02-18 09:27:05 51°9.898 2°38.822 265.6 12.8 265 14.4
2005-02-18 09:27:12 51°9.896 2°38.785 265.7 12.8 264 13.7
2005-02-18 09:27:17 51°9.894 2°38.757 265.7 12.8 265 14.7
2005-02-18 09:27:22 51°9.893 2°38.729 265.9 12.8 265 12.2
2005-02-18 09:27:26 51°9.892 2°38.706 266 12.8 265 14.1
2005-02-18 09:27:32 51°9.89 2°38.673 266.3 12.8 265 14.6
2005-02-18 09:27:37 51°9.888 2°38.645 266.3 12.8 264 15
2005-02-18 09:27:42 51°9.886 2°38.617 266.2 12.8 264 14.7
2005-02-18 09:27:47 51°9.884 2°38.589 265.6 12.8 264 14.9
2005-02-18 09:27:52 51°9.882 2°38.561 265.4 12.8 264 14.7
2005-02-18 09:27:57 51°9.88 2°38.533 265.5 12.8 264 15.4
2005-02-18 09:28:02 51°9.878 2°38.505 265.6 12.8 264 12.5
2005-02-18 09:28:06 51°9.877 2°38.483 265.7 12.8 263 13.7
2005-02-18 09:28:12 51°9.874 2°38.449 265.7 12.8 264 15.5
2005-02-18 09:28:16 51°9.873 2°38.424 265.6 12.8 264 15
2005-02-18 09:28:22 51°9.87 2°38.393 265.6 12.8 264 15.8
2005-02-18 09:28:26 51°9.869 2°38.368 265.6 12.8 264 15.1
2005-02-18 09:28:31 51°9.867 2°38.34 265.6 12.8 264 13.5
2005-02-18 09:28:36 51°9.865 2°38.312 265.6 12.8 264 15.8
2005-02-18 09:28:42 51°9.863 2°38.281 265.6 12.8 264 15.1
2005-02-18 09:28:47 51°9.861 2°38.253 265.8 12.8 264 15.6
2005-02-18 09:28:52 51°9.859 2°38.225 265.8 12.8 264 15.9
2005-02-18 09:28:56 51°9.858 2°38.202 265.9 12.8 264 14.4
2005-02-18 09:29:02 51°9.856 2°38.169 266 12.8 264 13.5
2005-02-18 09:29:07 51°9.854 2°38.138 266 12.8 264 15
2005-02-18 09:29:12 51°9.852 2°38.113 266.1 12.8 264 16.6
2005-02-18 09:29:16 51°9.851 2°38.088 266.1 12.8 264 16.5
2005-02-18 09:29:22 51°9.849 2°38.057 266.1 12.8 264 15.3
2005-02-18 09:29:27 51°9.847 2°38.028 265.9 12.8 264 16.3
2005-02-18 09:29:32 51°9.845 2°38 265.8 12.8 264 15.8
2005-02-18 09:29:36 51°9.843 2°37.978 265.6 12.8 264 16.3
2005-02-18 09:29:41 51°9.841 2°37.947 265.6 12.8 264 17.3
2005-02-18 09:29:46 51°9.839 2°37.919 265.5 12.8 263 15.9
2005-02-18 09:29:52 51°9.837 2°37.888 265.4 12.8 263 16.5
2005-02-18 09:29:57 51°9.835 2°37.86 265.4 12.8 263 17.5
2005-02-18 09:30:02 51°9.833 2°37.832 265.4 12.8 263 15.3
2005-02-18 09:30:06 51°9.831 2°37.804 265.4 12.8 264 17.5
2005-02-18 09:30:11 51°9.829 2°37.776 265.2 12.8 264 17.2
2005-02-18 09:30:16 51°9.827 2°37.753 265.2 12.8 263 17.6
2005-02-18 09:30:21 51°9.825 2°37.719 265.2 12.8 263 17.6
2005-02-18 09:30:26 51°9.823 2°37.694 265 12.8 263 18
2005-02-18 09:30:31 51°9.821 2°37.666 265 12.8 263 17.3
2005-02-18 09:30:36 51°9.819 2°37.638 265.2 12.8 263 18
2005-02-18 09:30:41 51°9.817 2°37.607 265.4 12.8 264 18
2005-02-18 09:30:46 51°9.815 2°37.579 265.6 12.8 264 17.8
2005-02-18 09:30:51 51°9.813 2°37.551 265.6 12.8 264 18
2005-02-18 09:30:56 51°9.811 2°37.525 265.6 12.9 264 18
2005-02-18 09:31:01 51°9.809 2°37.494 265.4 12.8 263 18
2005-02-18 09:31:06 51°9.807 2°37.469 265 12.8 263 18.1
2005-02-18 09:31:11 51°9.805 2°37.438 265 12.8 263 18
2005-02-18 09:31:16 51°9.803 2°37.413 265 12.8 263 18
2005-02-18 09:31:21 51°9.801 2°37.385 265.3 12.8 263 18.1
2005-02-18 09:31:27 51°9.799 2°37.354 265.6 12.8 264 18.2
2005-02-18 09:31:31 51°9.798 2°37.326 265.8 12.8 264 17.2
2005-02-18 09:31:36 51°9.796 2°37.3 265.8 12.8 264 18.1
2005-02-18 09:31:42 51°9.794 2°37.269 265.6 12.8 264 18.2
2005-02-18 09:31:45 51°9.792 2°37.249 265.6 12.8 264 18.2
2005-02-18 09:31:51 51°9.789 2°37.213 265.4 12.8 263 18.2
2005-02-18 09:31:55 51°9.788 2°37.19 265.1 12.9 263 17.9
2005-02-18 09:32:01 51°9.785 2°37.157 265.1 12.9 263 18
2005-02-18 09:32:06 51°9.784 2°37.134 265.2 12.8 264 18.2
2005-02-18 09:32:11 51°9.783 2°37.1 265.6 12.8 265 18.1
2005-02-18 09:32:16 51°9.783 2°37.072 266.4 12.8 265 18.2
2005-02-18 09:32:21 51°9.785 2°37.044 271.8 12.8 273 18.3
2005-02-18 09:32:25 51°9.787 2°37.021 275.8 12.8 277 18.3
2005-02-18 09:32:31 51°9.791 2°36.988 278.9 12.8 279 18.2
2005-02-18 09:32:36 51°9.794 2°36.963 281.2 12.8 281 18.1
2005-02-18 09:32:41 51°9.798 2°36.935 282.9 12.9 282 18.1
2005-02-18 09:32:45 51°9.801 2°36.913 283.7 12.9 283 18.2
2005-02-18 09:32:51 51°9.806 2°36.88 284.3 12.9 283 18.3
2005-02-18 09:32:55 51°9.81 2°36.855 284.8 12.9 283 18.5
2005-02-18 09:33:01 51°9.814 2°36.824 285.2 12.9 284 18.9
2005-02-18 09:33:05 51°9.818 2°36.799 285.5 12.9 284 18.9
2005-02-18 09:33:11 51°9.823 2°36.766 285.6 13 284 19.1
2005-02-18 09:33:16 51°9.828 2°36.738 285.6 13 284 19.1
2005-02-18 09:33:21 51°9.832 2°36.71 285.3 13 284 19
2005-02-18 09:33:26 51°9.836 2°36.682 285.2 13 284 19.1
2005-02-18 09:33:31 51°9.84 2°36.654 284.9 13 283 19
2005-02-18 09:33:36 51°9.844 2°36.629 284.5 13 283 18.9
2005-02-18 09:33:41 51°9.849 2°36.599 285 13 283 19.1
2005-02-18 09:33:46 51°9.855 2°36.572 286.8 13 287 19
2005-02-18 09:33:51 51°9.861 2°36.544 288.4 13.1 288 19.4
2005-02-18 09:33:56 51°9.866 2°36.52 289.6 13.1 288 18.8
2005-02-18 09:34:01 51°9.872 2°36.493 290.4 13.1 289 19.3
2005-02-18 09:34:06 51°9.878 2°36.465 290.6 13.1 289 19.1
2005-02-18 09:34:12 51°9.885 2°36.433 290.7 13.1 289 19.6
2005-02-18 09:34:16 51°9.89 2°36.411 290.7 13.1 289 19.3
2005-02-18 09:34:21 51°9.896 2°36.384 290.7 13.1 289 19.2
2005-02-18 09:34:25 51°9.901 2°36.359 290.6 13.1 289 19.2
2005-02-18 09:34:31 51°9.908 2°36.326 290.5 13.1 289 18.9
2005-02-18 09:34:36 51°9.914 2°36.299 290.5 13.1 289 19.2
2005-02-18 09:34:41 51°9.92 2°36.272 290.5 13.1 289 19.2
2005-02-18 09:34:45 51°9.924 2°36.253 290.6 13.1 289 19.3
2005-02-18 09:34:51 51°9.932 2°36.218 290.7 13.1 290 19.3
2005-02-18 09:34:55 51°9.937 2°36.196 290.9 13.1 289 19.5
2005-02-18 09:35:01 51°9.944 2°36.163 291 13.1 290 18.4
2005-02-18 09:35:05 51°9.949 2°36.141 290.7 13.1 289 19.5
2005-02-18 09:35:11 51°9.956 2°36.108 290.2 13.1 288 19.6
2005-02-18 09:35:17 51°9.962 2°36.078 289.9 13.1 288 19.7
2005-02-18 09:35:21 51°9.968 2°36.054 289.8 13.1 289 19.7
2005-02-18 09:35:25 51°9.973 2°36.032 290.1 13.1 290 19.7
2005-02-18 09:35:31 51°9.982 2°36.001 291.6 13.1 293 19.6
2005-02-18 09:35:36 51°9.99 2°35.978 294.6 13.1 297 19.4